Disclaimer

Please do not use the information listed here in-flight or in-navigation, as they are not provided to us by the airports but are provided by volunteers, so they might be outdated.

Search


Regions


Airport information page

No radio frequency information is available.

Airport informations:
Latitude: 15° 13' 46.34" N
Longitude: 103° 15' 11.63" E
Elevation: 590 feet - 180 meters
Operating hours: Remarks
Operating agency: Civil government, landing fees and diplomatic clearance may be required
Timezone: UTC+7
Fuel: N/A

Runway information:
04/22 - 6890 x 148 feet< - >2100 x 45 meters

Recent METARs:
VTUO 170900Z 03012KT 350V060 9000 FEW040 BKN100 30/19 Q1012 NOSIG
VTUO 171000Z 05012KT 010V080 9000 FEW040 BKN100 29/18 Q1013 NOSIG
VTUO 171000Z 05012KT 010V080 9000 FEW040 BKN100 29/18 Q1013 NOSIG

Airport on the map: